Bunbury, Australia
Current Conditions -  °F | °C
As of 9:30 AM on Wednesday 22 Oct 2014 (Local Time) from YPJT Reporting Station
Clear Clear  
Wind Chill: 79°   Ceiling: Unl
Heat Index: 79°   Visibility: 6mi
Dew Point: 52°   Wind: 20mph
Humidity: 39%   Direction: 30°NNE
Pressure: 29.94"   Gusts: NA
Location:  33.33°S, 115.64°E
Report Text: YPJT 220130Z AUTO 03017KT 9999 // NCD 26/11 Q1014
Loading
Personal Weather Stations






























Interactive Weather Map
Tropical Storm Tracking
New forecast layout! Learn more

10-Day Weather Forecast

Advertisements
Track Severe Weather on mobile